Time;durP1;ratioP1;P1;durP2;ratioP2;P2;SDS_P1;SDS_P2;PMS_P1;PMS_P2;Temp;Humidity;BMP_temperature;BMP_pressure;BME280_temperature;BME280_humidity;BME280_pressure;Samples;Min_cycle;Max_cycle;Signal;HPM_P1;HPM_P2
2022/03/07 00:00:56;;;;;;;20.80;11.55;;;;;;;2.08;87.46;100041.38;5009881;28;20029;-19
2022/03/07 00:03:21;;;;;;;18.67;10.55;;;;;;;1.92;87.67;100039.53;5010422;28;20040;-20
2022/03/07 00:05:46;;;;;;;21.10;11.20;;;;;;;1.98;88.33;100049.41;5028210;28;20763;-21
2022/03/07 00:08:13;;;;;;;21.88;11.30;;;;;;;2.06;89.06;100056.50;5028048;28;20034;-20
2022/03/07 00:10:39;;;;;;;21.35;11.18;;;;;;;1.98;88.60;100044.16;4994035;28;20028;-20
2022/03/07 00:13:04;;;;;;;21.45;11.65;;;;;;;1.93;88.84;100031.50;5009803;28;20061;-20
2022/03/07 00:15:30;;;;;;;23.67;12.57;;;;;;;2.09;87.93;100035.13;5027201;28;20030;-20
2022/03/07 00:17:55;;;;;;;19.98;11.85;;;;;;;2.16;88.02;100036.09;5027925;28;20033;-20
2022/03/07 00:20:21;;;;;;;25.08;13.27;;;;;;;2.05;87.87;100029.38;5027981;28;20033;-20
2022/03/07 00:22:46;;;;;;;22.95;12.05;;;;;;;2.01;88.04;100028.88;5027809;28;20099;-20
2022/03/07 00:25:12;;;;;;;24.27;13.15;;;;;;;2.00;88.94;100032.50;5027907;28;20041;-20
2022/03/07 00:27:38;;;;;;;22.75;13.38;;;;;;;2.19;88.32;100012.94;5028160;28;20030;-20
2022/03/07 00:30:04;;;;;;;22.98;12.82;;;;;;;2.25;87.55;100023.75;5027352;28;20083;-21
2022/03/07 00:32:30;;;;;;;24.88;12.68;;;;;;;2.31;87.83;100029.22;5027824;28;20043;-20
2022/03/07 00:34:55;;;;;;;25.38;13.82;;;;;;;2.47;87.32;100033.59;5027804;28;20034;-20
2022/03/07 00:37:21;;;;;;;26.90;15.20;;;;;;;2.37;86.91;100022.44;5028036;28;20048;-21
2022/03/07 00:39:46;;;;;;;25.95;14.38;;;;;;;2.46;86.79;100031.16;5027803;28;20030;-21
2022/03/07 00:42:12;;;;;;;22.25;13.27;;;;;;;2.33;87.09;100021.97;5027660;28;20429;-20
2022/03/07 00:44:37;;;;;;;21.52;13.25;;;;;;;2.55;85.98;100028.31;5009828;28;20405;-20
2022/03/07 00:47:03;;;;;;;22.75;13.13;;;;;;;2.40;87.20;100037.91;5027517;28;20029;-19
2022/03/07 00:49:29;;;;;;;24.63;13.63;;;;;;;2.58;87.16;100029.81;5027838;28;20083;-20
2022/03/07 00:51:56;;;;;;;23.95;13.85;;;;;;;2.41;87.12;100014.06;5010001;28;20099;-20
2022/03/07 00:54:21;;;;;;;26.50;14.70;;;;;;;2.34;87.86;100028.84;5013802;28;20429;-22
2022/03/07 00:56:47;;;;;;;26.02;14.48;;;;;;;2.32;87.79;100022.94;5031310;28;20535;-20
2022/03/07 00:59:12;;;;;;;21.52;12.60;;;;;;;2.55;87.67;100030.16;5013370;28;20033;-20
2022/03/07 01:01:38;;;;;;;20.52;12.38;;;;;;;2.52;87.29;100031.31;5031396;28;20022;-20
2022/03/07 01:04:03;;;;;;;21.30;11.55;;;;;;;2.46;87.35;100023.25;5031259;28;20033;-20
2022/03/07 01:06:29;;;;;;;22.45;12.25;;;;;;;2.18;88.10;100023.59;5031323;28;20433;-20
2022/03/07 01:08:54;;;;;;;21.05;11.38;;;;;;;1.97;89.27;100022.28;5030930;28;20044;-20
2022/03/07 01:11:20;;;;;;;21.58;12.35;;;;;;;2.07;89.10;100016.06;5031130;28;20067;-20
2022/03/07 01:13:45;;;;;;;21.58;13.18;;;;;;;2.26;88.73;100026.25;4996936;28;20407;-21
2022/03/07 01:16:11;;;;;;;24.70;13.07;;;;;;;2.13;88.63;100031.19;5013287;28;20029;-20
2022/03/07 01:18:36;;;;;;;25.20;13.38;;;;;;;2.22;88.25;100030.19;5013294;28;20045;-20
2022/03/07 01:21:02;;;;;;;26.05;14.00;;;;;;;2.42;87.92;100026.22;5030639;28;20092;-20
2022/03/07 01:23:29;;;;;;;24.40;14.13;;;;;;;2.51;87.43;100029.66;5030785;28;20049;-20
2022/03/07 01:25:54;;;;;;;28.98;15.98;;;;;;;2.53;86.72;100018.97;5030846;28;20678;-20
2022/03/07 01:28:20;;;;;;;28.98;15.05;;;;;;;2.84;86.01;100034.03;5030607;28;20780;-20
2022/03/07 01:30:47;;;;;;;25.33;15.68;;;;;;;2.87;85.85;100028.44;5030600;28;20036;-20
2022/03/07 01:33:12;;;;;;;28.70;15.82;;;;;;;2.93;85.41;100033.03;5030655;28;20125;-20
2022/03/07 01:35:38;;;;;;;29.70;16.08;;;;;;;2.98;84.80;100035.94;5030734;28;20029;-20
2022/03/07 01:38:03;;;;;;;31.75;17.25;;;;;;;2.60;85.46;100027.84;5012658;28;20037;-20
2022/03/07 01:40:29;;;;;;;33.72;17.15;;;;;;;2.84;85.68;100036.66;5030737;28;20037;-20
2022/03/07 01:42:55;;;;;;;32.35;17.17;;;;;;;2.70;85.57;100030.31;5030152;28;20466;-20
2022/03/07 01:45:20;;;;;;;31.67;17.17;;;;;;;2.61;85.93;100040.81;5012713;28;20029;-20
2022/03/07 01:47:46;;;;;;;28.40;17.13;;;;;;;2.70;85.84;100039.00;5030605;28;20033;-20
2022/03/07 01:50:13;;;;;;;32.55;17.23;;;;;;;2.81;85.32;100046.53;5030826;28;20111;-20
2022/03/07 01:52:40;;;;;;;32.10;17.05;;;;;;;2.66;85.89;100032.44;5030083;28;20037;-21
2022/03/07 01:55:07;;;;;;;29.48;17.23;;;;;;;2.60;86.22;100027.84;5012216;28;20051;-21
2022/03/07 01:57:35;;;;;;;29.67;15.93;;;;;;;2.67;85.64;100028.00;5030143;28;20032;-20
2022/03/07 02:00:00;;;;;;;29.95;16.73;;;;;;;2.72;85.38;100025.69;4996571;28;20029;-20
2022/03/07 02:02:25;;;;;;;30.05;16.83;;;;;;;2.68;85.88;100009.41;5030420;28;20037;-20
2022/03/07 02:04:52;;;;;;;29.35;16.10;;;;;;;2.66;85.14;99987.69;5030081;28;20049;-20
2022/03/07 02:07:17;;;;;;;29.40;16.30;;;;;;;2.83;85.22;100013.97;5012413;28;20090;-22
2022/03/07 02:09:43;;;;;;;25.48;15.43;;;;;;;2.81;85.71;100014.94;5030275;28;20033;-20
2022/03/07 02:12:10;;;;;;;29.63;16.10;;;;;;;2.69;85.78;100000.50;4995470;28;20132;-21
2022/03/07 02:14:35;;;;;;;28.10;16.02;;;;;;;2.72;84.80;99992.25;5030443;28;20114;-20
2022/03/07 02:17:01;;;;;;;30.13;16.50;;;;;;;2.71;85.21;100019.56;5029868;28;20521;-20
2022/03/07 02:19:26;;;;;;;30.35;15.70;;;;;;;2.69;85.93;100021.56;4995626;28;20091;-20
2022/03/07 02:22:00;;;;;;;29.08;15.27;;;;;;;2.42;86.10;100020.13;5029997;28;20029;-20
2022/03/07 02:24:25;;;;;;;33.95;17.60;;;;;;;2.50;87.37;100025.38;4996228;28;20051;-20
2022/03/07 02:27:01;;;;;;;30.02;17.17;;;;;;;2.38;87.21;100021.47;5029141;28;20482;-19
2022/03/07 02:29:27;;;;;;;31.00;17.25;;;;;;;2.35;86.87;99998.94;5012603;28;20034;-20
2022/03/07 02:31:52;;;;;;;36.00;18.98;;;;;;;2.32;87.27;100009.78;5029585;28;20029;-20
2022/03/07 02:34:18;;;;;;;38.42;18.63;;;;;;;2.49;86.62;100009.75;5029750;28;20037;-20
2022/03/07 02:36:44;;;;;;;36.88;19.58;;;;;;;2.60;87.05;100033.13;5029428;28;20030;-20
2022/03/07 02:39:10;;;;;;;36.33;19.30;;;;;;;2.57;87.14;100036.06;5029193;28;20110;-20
2022/03/07 02:41:37;;;;;;;37.55;20.23;;;;;;;2.32;87.81;100030.84;5011831;28;20517;-20
2022/03/07 02:44:02;;;;;;;40.97;20.85;;;;;;;2.49;86.91;100017.66;5029491;28;20171;-20
2022/03/07 02:46:27;;;;;;;39.47;20.52;;;;;;;2.42;87.29;100035.94;5029647;28;20116;-20
2022/03/07 02:48:53;;;;;;;38.42;20.35;;;;;;;2.26;87.97;100020.97;5011270;28;20041;-20
2022/03/07 02:51:18;;;;;;;42.50;21.25;;;;;;;2.58;87.67;100040.34;5029288;28;20026;-20
2022/03/07 02:53:44;;;;;;;39.00;20.92;;;;;;;2.63;87.25;100034.59;5028936;28;20421;-20
2022/03/07 02:56:09;;;;;;;43.30;21.88;;;;;;;2.55;87.61;100027.50;5029250;28;20038;-20
2022/03/07 02:58:35;;;;;;;39.67;20.20;;;;;;;2.46;87.08;100018.00;5029008;28;20037;-21
2022/03/07 03:01:00;;;;;;;42.38;21.15;;;;;;;2.52;86.64;100033.13;5028966;28;20021;-20
2022/03/07 03:03:26;;;;;;;44.58;21.23;;;;;;;2.50;87.37;100037.75;5029009;28;20445;-20
2022/03/07 03:05:54;;;;;;;38.75;22.10;;;;;;;2.45;87.72;100040.03;5029100;28;20025;-20
2022/03/07 03:08:22;;;;;;;37.03;20.95;;;;;;;2.55;88.02;100035.41;5028688;28;20041;-20
2022/03/07 03:10:49;;;;;;;41.80;22.52;;;;;;;2.64;87.39;100038.88;5011069;28;20830;-20
2022/03/07 03:13:17;;;;;;;42.85;21.48;;;;;;;2.67;86.95;100023.53;5010909;28;20061;-21
2022/03/07 03:15:43;;;;;;;40.00;21.37;;;;;;;2.88;86.62;100043.22;5028172;28;20572;-20
2022/03/07 03:18:09;;;;;;;40.35;21.17;;;;;;;2.73;86.64;100046.56;5011290;28;20033;-20
2022/03/07 03:20:34;;;;;;;45.85;23.58;;;;;;;2.79;86.14;100026.63;5028650;28;20037;-20
2022/03/07 03:23:00;;;;;;;43.83;21.90;;;;;;;2.91;86.99;100048.19;5028566;28;20025;-21
2022/03/07 03:25:25;;;;;;;59.97;22.88;;;;;;;2.91;87.11;100051.63;5028692;28;20102;-20
2022/03/07 03:27:51;;;;;;;45.10;24.30;;;;;;;3.08;86.83;100041.84;5028747;28;20032;-20
2022/03/07 03:30:16;;;;;;;42.90;21.65;;;;;;;3.03;85.74;100038.09;5028508;28;20040;-20
2022/03/07 03:32:42;;;;;;;41.92;22.42;;;;;;;3.00;86.88;100044.50;5028323;28;20028;-20
2022/03/07 03:35:08;;;;;;;41.13;22.70;;;;;;;2.98;85.84;100025.41;5028217;28;20543;-20
2022/03/07 03:37:33;;;;;;;39.97;22.42;;;;;;;2.81;86.10;100025.47;5028101;28;20033;-19
2022/03/07 03:39:58;;;;;;;40.25;21.35;;;;;;;2.87;86.07;100038.97;5028596;28;20497;-21
2022/03/07 03:42:24;;;;;;;41.70;21.88;;;;;;;2.87;86.67;100038.97;5028309;28;20029;-20
2022/03/07 03:44:49;;;;;;;39.08;21.75;;;;;;;2.61;87.03;100017.13;4994066;28;20041;-20
2022/03/07 03:47:15;;;;;;;39.45;22.23;;;;;;;2.77;86.80;100002.28;5028222;28;20083;-20
2022/03/07 03:49:41;;;;;;;43.63;22.50;;;;;;;2.77;86.81;100026.81;5028550;28;20041;-20
2022/03/07 03:52:06;;;;;;;42.90;24.00;;;;;;;2.68;87.41;100025.19;5010034;28;20036;-20
2022/03/07 03:54:32;;;;;;;46.05;22.65;;;;;;;2.81;87.38;100041.28;5028450;28;20400;-20
2022/03/07 03:56:57;;;;;;;41.13;22.90;;;;;;;3.09;86.21;100032.97;5028271;28;20394;-20
2022/03/07 03:59:23;;;;;;;45.55;24.52;;;;;;;3.03;85.57;100043.38;5010360;28;20044;-20
2022/03/07 04:01:48;;;;;;;43.63;22.13;;;;;;;3.11;84.91;100044.16;5028211;28;20025;-20
2022/03/07 04:04:14;;;;;;;45.20;23.48;;;;;;;3.19;84.89;100038.84;5010124;28;20037;-20
2022/03/07 04:06:40;;;;;;;39.22;20.75;;;;;;;3.11;85.55;100036.25;5010199;28;20497;-20
2022/03/07 04:09:08;;;;;;;44.28;22.75;;;;;;;3.13;85.92;100028.19;5027878;28;20652;-21
2022/03/07 04:11:33;;;;;;;45.22;22.98;;;;;;;3.33;85.29;100044.38;5028184;28;20033;-20
2022/03/07 04:13:59;;;;;;;43.08;23.77;;;;;;;3.50;84.87;100048.59;5027769;28;20402;-20
2022/03/07 04:16:24;;;;;;;38.88;21.83;;;;;;;3.49;84.73;100043.47;5027926;28;20036;-20
2022/03/07 04:18:50;;;;;;;43.00;23.40;;;;;;;3.38;84.83;100031.50;5027730;28;20037;-20
2022/03/07 04:21:15;;;;;;;41.38;22.50;;;;;;;3.48;83.85;100045.28;5027826;28;20460;-21
2022/03/07 04:23:40;;;;;;;40.65;20.67;;;;;;;3.43;84.57;100039.72;5027776;28;20038;-20
2022/03/07 04:26:06;;;;;;;40.45;20.75;;;;;;;3.50;84.42;100045.13;5027537;28;20033;-20
2022/03/07 04:28:32;;;;;;;38.13;20.17;;;;;;;3.19;85.05;100043.31;5032143;28;20029;-20
2022/03/07 04:30:58;;;;;;;37.97;19.55;;;;;;;3.12;85.64;100021.25;5031733;28;20103;-20
2022/03/07 04:33:24;;;;;;;33.88;18.55;;;;;;;3.08;85.88;100030.50;5013979;28;20041;-20
2022/03/07 04:35:49;;;;;;;38.03;18.65;;;;;;;3.18;85.48;100033.75;4997480;28;20033;-22
2022/03/07 04:38:15;;;;;;;31.75;17.30;;;;;;;2.99;85.28;100016.53;5032314;28;20126;-20
2022/03/07 04:40:40;;;;;;;31.20;17.05;;;;;;;3.07;86.21;100037.59;5014085;28;20029;-20
2022/03/07 04:43:06;;;;;;;32.15;16.52;;;;;;;3.14;85.94;100035.88;5031299;28;20090;-21
2022/03/07 04:45:31;;;;;;;30.33;16.13;;;;;;;3.26;85.64;100032.91;5031666;28;20516;-20
2022/03/07 04:47:57;;;;;;;31.40;16.73;;;;;;;3.22;85.63;100027.13;5013705;28;20294;-20
2022/03/07 04:50:22;;;;;;;30.20;15.80;;;;;;;3.44;84.20;100030.00;5031471;28;20041;-22
2022/03/07 04:52:48;;;;;;;25.48;14.45;;;;;;;2.91;85.35;100008.66;5030956;28;20025;-20
2022/03/07 04:55:13;;;;;;;27.23;14.18;;;;;;;3.18;85.59;100026.66;5031816;28;20048;-20
2022/03/07 04:57:39;;;;;;;26.35;13.93;;;;;;;3.27;85.21;100029.25;5031563;28;20088;-20
2022/03/07 05:00:06;;;;;;;30.50;15.02;;;;;;;3.44;84.94;100030.81;5031238;28;20032;-20
2022/03/07 05:02:32;;;;;;;30.33;15.80;;;;;;;3.37;84.78;100024.59;5013579;28;20068;-20
2022/03/07 05:04:57;;;;;;;24.80;13.50;;;;;;;3.26;84.93;100011.81;5012976;28;20029;-20
2022/03/07 05:07:24;;;;;;;31.13;15.63;;;;;;;2.87;85.19;100023.16;4997582;28;20777;-21
2022/03/07 05:09:49;;;;;;;27.15;14.77;;;;;;;3.13;85.10;100018.44;5031249;28;20040;-20
2022/03/07 05:12:15;;;;;;;29.25;14.93;;;;;;;3.26;85.72;100027.63;5013167;28;20057;-19
2022/03/07 05:14:40;;;;;;;27.75;14.38;;;;;;;2.94;86.93;100037.28;5013412;28;20032;-20
2022/03/07 05:17:05;;;;;;;28.85;14.07;;;;;;;3.02;86.51;100021.44;5031362;28;20354;-20
2022/03/07 05:19:31;;;;;;;26.98;14.13;;;;;;;3.31;86.32;100033.19;5030874;28;20040;-20
2022/03/07 05:21:56;;;;;;;24.70;13.25;;;;;;;3.36;84.99;100030.88;5030800;28;20041;-20
2022/03/07 05:24:22;;;;;;;22.02;12.75;;;;;;;3.04;85.96;100031.81;5031062;28;20469;-19
2022/03/07 05:26:47;;;;;;;27.60;14.10;;;;;;;3.29;85.36;100027.25;5030584;28;20072;-20
2022/03/07 05:29:14;;;;;;;29.48;14.05;;;;;;;3.38;85.42;100028.88;5013176;28;20037;-20
2022/03/07 05:31:39;;;;;;;43.67;19.42;;;;;;;3.54;83.84;100027.97;5030732;28;20033;-20
2022/03/07 05:34:05;;;;;;;112.47;38.13;;;;;;;3.20;85.54;100029.94;5012855;28;20118;-20
2022/03/07 05:36:30;;;;;;;30.17;14.93;;;;;;;3.04;86.46;100027.38;5012445;28;20035;-20
2022/03/07 05:38:55;;;;;;;31.50;13.70;;;;;;;2.80;88.31;100020.41;5029931;28;20486;-20
2022/03/07 05:41:21;;;;;;;39.03;17.30;;;;;;;2.65;88.25;100014.97;5030613;28;20392;-20
2022/03/07 05:43:46;;;;;;;30.00;15.27;;;;;;;3.08;88.04;100031.31;5030386;28;20033;-21
2022/03/07 05:46:13;;;;;;;41.80;18.17;;;;;;;3.31;86.54;100030.53;5030825;28;20037;-20
2022/03/07 05:48:38;;;;;;;54.50;31.27;;;;;;;3.27;85.81;100030.09;5012440;28;20041;-20
2022/03/07 05:51:03;;;;;;;46.42;28.63;;;;;;;3.20;85.88;100024.66;5012388;28;20724;-24
2022/03/07 05:53:29;;;;;;;46.53;28.23;;;;;;;3.42;85.20;100027.53;5030264;28;20025;-20
2022/03/07 05:55:54;;;;;;;47.25;26.23;;;;;;;3.31;85.57;100014.72;5030564;28;20037;-20
2022/03/07 05:58:20;;;;;;;36.70;17.17;;;;;;;3.45;85.06;100021.91;5030498;28;20083;-20
2022/03/07 06:00:45;;;;;;;29.10;14.95;;;;;;;3.40;84.09;100003.16;5030293;28;20405;-20
2022/03/07 06:03:11;;;;;;;27.50;14.85;;;;;;;3.72;83.71;100043.50;5029245;28;20036;-20
2022/03/07 06:05:37;;;;;;;28.13;13.73;;;;;;;3.20;84.61;100029.94;5030151;28;20033;-20
2022/03/07 06:08:04;;;;;;;27.58;14.70;;;;;;;2.87;86.38;100037.16;5030455;28;20508;-20
2022/03/07 06:10:29;;;;;;;38.38;20.25;;;;;;;2.04;90.62;100016.38;5030142;28;20034;-21
2022/03/07 06:12:55;;;;;;;35.05;18.60;;;;;;;2.21;91.27;100037.25;5012012;28;20136;-20
2022/03/07 06:15:20;;;;;;;32.72;17.02;;;;;;;2.41;91.33;100029.84;5030339;28;20033;-20
2022/03/07 06:17:52;;;;;;;29.15;14.38;;;;;;;2.24;90.66;100028.22;5029930;28;20037;-20
2022/03/07 06:20:19;;;;;;;29.65;14.60;;;;;;;2.31;90.91;100018.69;5029664;28;20057;-21
2022/03/07 06:22:44;;;;;;;31.20;14.85;;;;;;;2.57;90.46;100033.44;5029909;28;20112;-20
2022/03/07 06:25:10;;;;;;;30.63;14.52;;;;;;;2.30;90.75;100027.53;5029157;28;20048;-20
2022/03/07 06:27:35;;;;;;;32.72;15.75;;;;;;;2.54;90.57;100039.88;5030122;28;20171;-20
2022/03/07 06:30:01;;;;;;;31.20;16.13;;;;;;;2.39;90.37;100039.72;5029700;28;20052;-21
2022/03/07 06:32:26;;;;;;;37.22;18.30;;;;;;;2.55;90.12;100028.31;5029318;28;20104;-20
2022/03/07 06:34:52;;;;;;;33.95;15.85;;;;;;;2.30;90.64;100030.19;5029591;28;20030;-20
2022/03/07 06:37:17;;;;;;;36.35;16.67;;;;;;;2.69;90.39;100053.16;5029522;28;20124;-22
2022/03/07 06:39:43;;;;;;;35.30;17.20;;;;;;;2.74;89.78;100042.97;5029526;28;20025;-20
2022/03/07 06:42:08;;;;;;;36.97;16.52;;;;;;;2.80;89.80;100047.53;5029402;28;20132;-20
2022/03/07 06:44:39;;;;;;;37.40;17.58;;;;;;;2.93;89.28;100038.28;5029477;28;20033;-20
2022/03/07 06:47:07;;;;;;;40.03;18.38;;;;;;;3.04;88.47;100045.81;5028965;28;20037;-20
2022/03/07 06:49:33;;;;;;;33.50;15.38;;;;;;;2.88;88.54;100044.06;5029119;28;20548;-20
2022/03/07 06:51:58;;;;;;;39.83;17.67;;;;;;;2.84;89.51;100034.03;5010714;28;20038;-22
2022/03/07 06:54:24;;;;;;;39.83;18.33;;;;;;;2.86;89.94;100039.94;5029128;28;20040;-20
2022/03/07 06:56:49;;;;;;;36.40;16.60;;;;;;;2.83;89.78;100035.03;5029056;28;20041;-20
2022/03/07 06:59:15;;;;;;;41.55;18.50;;;;;;;3.07;89.34;100029.69;5028899;28;20033;-21
2022/03/07 07:01:40;;;;;;;41.88;19.70;;;;;;;3.03;88.85;100038.91;5028572;28;20040;-20
2022/03/07 07:04:05;;;;;;;41.13;18.38;;;;;;;3.14;88.13;100037.72;5029012;28;20121;-21
2022/03/07 07:06:31;;;;;;;55.55;22.98;;;;;;;3.23;87.70;100036.69;5029019;28;20040;-20
2022/03/07 07:08:57;;;;;;;75.22;31.45;;;;;;;3.27;87.88;100034.53;5028694;28;20536;-20
2022/03/07 07:11:22;;;;;;;44.33;19.77;;;;;;;3.37;87.39;100027.22;5010852;28;20446;-21
2022/03/07 07:13:48;;;;;;;42.92;19.98;;;;;;;3.43;87.00;100034.44;5028645;28;20053;-20
2022/03/07 07:16:13;;;;;;;40.78;19.95;;;;;;;3.30;87.78;100039.47;5028523;28;20776;-20
2022/03/07 07:18:39;;;;;;;49.40;23.17;;;;;;;3.32;87.80;100037.47;5028502;28;20037;-20
2022/03/07 07:21:04;;;;;;;43.60;19.80;;;;;;;3.16;87.87;100041.00;5028398;28;20037;-19
2022/03/07 07:23:30;;;;;;;45.10;19.60;;;;;;;3.12;87.91;100037.88;5028673;28;20045;-20
2022/03/07 07:25:55;;;;;;;45.53;20.38;;;;;;;3.00;89.33;100044.50;5028814;28;20087;-20
2022/03/07 07:28:21;;;;;;;49.63;21.92;;;;;;;3.29;88.91;100049.19;5028591;28;20034;-20
2022/03/07 07:30:47;;;;;;;46.33;20.48;;;;;;;3.19;88.44;100045.94;5010453;28;20504;-20
2022/03/07 07:33:13;;;;;;;51.28;23.52;;;;;;;3.14;88.89;100043.78;5028388;28;20492;-20
2022/03/07 07:35:38;;;;;;;50.92;22.15;;;;;;;3.39;87.85;100039.25;5028382;28;20029;-20
2022/03/07 07:38:04;;;;;;;53.90;22.75;;;;;;;3.29;88.06;100022.00;5028311;28;20705;-20
2022/03/07 07:40:30;;;;;;;55.35;24.33;;;;;;;3.30;88.23;100039.47;5028503;28;20037;-21
2022/03/07 07:42:56;;;;;;;56.58;24.17;;;;;;;3.62;87.93;100038.47;5027280;28;20037;-20
2022/03/07 07:45:21;;;;;;;55.97;23.20;;;;;;;3.67;86.50;100040.56;5028340;28;20037;-20
2022/03/07 07:47:47;;;;;;;57.17;24.23;;;;;;;3.49;86.86;100044.28;5028112;28;20102;-20
2022/03/07 07:50:13;;;;;;;57.50;24.85;;;;;;;3.64;86.89;100020.66;5028166;28;20037;-20
2022/03/07 07:52:38;;;;;;;54.42;23.70;;;;;;;3.84;85.75;100031.53;5028146;28;20029;-20
2022/03/07 07:55:07;;;;;;;57.45;26.35;;;;;;;4.05;84.81;100033.56;5027869;28;20414;-20
2022/03/07 07:57:33;;;;;;;53.30;24.15;;;;;;;3.92;84.49;100033.31;5028217;28;20064;-20
2022/03/07 07:59:59;;;;;;;60.20;26.75;;;;;;;4.15;84.78;100023.56;5027760;28;20041;-20
2022/03/07 08:02:24;;;;;;;54.13;24.17;;;;;;;3.85;86.13;100016.56;5027992;28;20029;-20
2022/03/07 08:04:51;;;;;;;50.55;22.48;;;;;;;4.14;84.96;100042.22;5027827;28;20100;-20
2022/03/07 08:07:18;;;;;;;48.55;22.77;;;;;;;4.25;84.84;100039.16;5028164;28;20048;-20
2022/03/07 08:09:43;;;;;;;47.10;21.88;;;;;;;3.99;85.61;100034.25;5010337;28;20371;-19
2022/03/07 08:12:10;;;;;;;40.92;21.30;;;;;;;4.17;84.78;100036.59;5027869;28;20730;-20
2022/03/07 08:14:36;;;;;;;48.70;21.35;;;;;;;4.07;85.93;100030.75;5027689;28;20026;-21
2022/03/07 08:17:01;;;;;;;46.70;22.35;;;;;;;4.37;84.41;100032.47;5027710;28;20116;-20
2022/03/07 08:19:27;;;;;;;48.15;21.55;;;;;;;4.33;83.19;100027.69;5027893;28;20077;-19
2022/03/07 08:21:52;;;;;;;51.08;22.77;;;;;;;4.60;82.53;100024.47;5027605;28;20033;-20
2022/03/07 08:24:18;;;;;;;47.88;22.17;;;;;;;4.58;83.90;100038.88;5027621;28;20038;-20
2022/03/07 08:26:43;;;;;;;61.22;26.50;;;;;;;4.51;83.96;100016.81;5027487;28;20030;-19
2022/03/07 08:29:09;;;;;;;79.10;28.90;;;;;;;4.51;84.38;100022.09;5027300;28;20026;-20
2022/03/07 08:31:34;;;;;;;69.60;30.02;;;;;;;4.50;83.54;100025.75;5027642;28;20037;-21
2022/03/07 08:34:00;;;;;;;52.20;21.55;;;;;;;4.76;83.00;100036.69;5027754;28;20037;-21
2022/03/07 08:36:26;;;;;;;39.58;20.65;;;;;;;4.75;81.84;100035.03;5027782;28;20500;-20
2022/03/07 08:38:52;;;;;;;34.25;17.02;;;;;;;4.64;80.48;100022.28;5027453;28;20505;-20
2022/03/07 08:41:17;;;;;;;38.05;16.50;;;;;;;4.86;80.38;100028.47;5027516;28;20030;-20
2022/03/07 08:43:45;;;;;;;38.72;17.85;;;;;;;5.07;79.72;100032.19;5027387;28;20540;-20
2022/03/07 08:46:10;;;;;;;31.42;16.85;;;;;;;5.10;80.09;100035.31;5027603;28;20152;-21
2022/03/07 08:48:36;;;;;;;31.65;14.68;;;;;;;5.12;78.06;100000.75;5027494;28;20092;-19
2022/03/07 08:51:02;;;;;;;32.95;16.00;;;;;;;5.10;79.95;100000.94;5009641;28;20048;-20
2022/03/07 08:53:27;;;;;;;31.70;15.82;;;;;;;5.41;79.23;100018.38;5027485;28;20092;-20
2022/03/07 08:55:53;;;;;;;37.45;18.27;;;;;;;5.53;79.71;100016.91;5027590;28;20038;-20
2022/03/07 08:58:18;;;;;;;34.63;17.98;;;;;;;5.52;78.12;99998.59;5027240;28;20799;-20
2022/03/07 09:00:43;;;;;;;57.80;26.05;;;;;;;5.63;79.64;100012.13;5027044;28;20045;-20
2022/03/07 09:03:09;;;;;;;51.42;22.10;;;;;;;6.01;77.15;100014.56;5027353;28;20026;-19
2022/03/07 09:05:35;;;;;;;28.85;14.75;;;;;;;6.26;73.95;100011.50;5027649;28;20038;-21
2022/03/07 09:08:01;;;;;;;36.75;17.42;;;;;;;6.02;76.28;100015.38;5027395;28;20056;-20
2022/03/07 09:10:26;;;;;;;38.83;19.35;;;;;;;5.83;78.17;100016.81;5027252;28;20488;-19
2022/03/07 09:12:54;;;;;;;34.45;17.17;;;;;;;5.50;77.65;100021.75;5027044;28;20449;-20
2022/03/07 09:15:19;;;;;;;46.00;24.25;;;;;;;5.94;77.35;100008.34;5030781;28;20068;-20
2022/03/07 09:17:45;;;;;;;41.45;19.50;;;;;;;5.78;76.57;99998.84;5031030;28;20153;-19
2022/03/07 09:20:13;;;;;;;38.75;17.98;;;;;;;5.51;77.02;100018.09;5030903;28;20025;-20
2022/03/07 09:22:38;;;;;;;41.33;21.25;;;;;;;5.52;76.65;100004.69;5030682;28;20254;-20
2022/03/07 09:25:04;;;;;;;41.67;19.65;;;;;;;5.40;76.35;100000.91;5030650;28;20033;-20
2022/03/07 09:27:29;;;;;;;34.53;19.55;;;;;;;5.54;76.83;100017.75;5030651;28;20540;-22
2022/03/07 09:29:55;;;;;;;44.35;21.83;;;;;;;5.36;78.39;99989.88;5030714;28;20147;-20
2022/03/07 09:32:20;;;;;;;56.20;26.02;;;;;;;5.74;78.09;100017.91;5012677;28;20029;-20
2022/03/07 09:34:46;;;;;;;20.30;11.07;;;;;;;5.64;74.68;100003.19;5030923;28;20087;-20
2022/03/07 09:37:12;;;;;;;15.75;8.90;;;;;;;5.29;74.79;99999.56;5030544;28;20055;-20
2022/03/07 09:39:37;;;;;;;18.85;9.13;;;;;;;5.46;73.49;99996.69;5030692;28;20807;-19
2022/03/07 09:42:03;;;;;;;18.35;9.82;;;;;;;5.36;72.28;99999.63;5030414;28;20033;-19
2022/03/07 09:44:29;;;;;;;20.30;10.90;;;;;;;5.44;73.68;100010.09;5030651;28;20036;-20
2022/03/07 09:46:57;;;;;;;19.90;11.20;;;;;;;6.12;72.80;100007.13;5030278;28;20033;-20
2022/03/07 09:49:23;;;;;;;22.52;12.98;;;;;;;6.55;72.63;99994.59;5030556;28;20122;-20
2022/03/07 09:51:49;;;;;;;25.67;12.55;;;;;;;6.35;74.13;99994.44;5030240;28;20033;-20
2022/03/07 09:54:14;;;;;;;23.60;11.88;;;;;;;5.94;72.36;99997.75;5030221;28;20033;-20
2022/03/07 09:56:39;;;;;;;22.42;12.38;;;;;;;5.62;74.77;99988.53;5030298;28;20516;-20
2022/03/07 09:59:07;;;;;;;22.83;11.73;;;;;;;5.75;77.30;100006.34;5030302;28;20387;-20
2022/03/07 10:01:32;;;;;;;24.17;12.15;;;;;;;6.10;73.66;100001.19;5030386;28;20033;-20
2022/03/07 10:04:08;;;;;;;26.25;13.35;;;;;;;6.11;75.18;99997.50;5030599;28;20037;-19
2022/03/07 10:06:33;;;;;;;22.05;12.23;;;;;;;5.61;73.53;99992.97;5029946;28;20120;-20
2022/03/07 10:09:00;;;;;;;21.50;12.05;;;;;;;5.90;73.31;100007.09;5029617;28;20477;-21
2022/03/07 10:11:26;;;;;;;21.23;10.52;;;;;;;6.10;72.16;100001.19;5029501;28;20045;-20
2022/03/07 10:13:53;;;;;;;15.60;9.05;;;;;;;6.49;69.31;99994.56;5030116;28;20057;-20
2022/03/07 10:16:20;;;;;;;18.88;10.90;;;;;;;6.33;70.93;100001.75;5030033;28;20083;-21
2022/03/07 10:18:53;;;;;;;17.92;9.70;;;;;;;6.74;71.65;100003.69;5012118;28;20036;-20
2022/03/07 10:21:25;;;;;;;18.13;10.13;;;;;;;6.87;71.87;100010.88;5029669;28;20026;-20
2022/03/07 10:23:55;;;;;;;21.98;11.80;;;;;;;6.55;71.47;99986.63;5029702;28;20053;-20
2022/03/07 10:26:20;;;;;;;16.77;8.95;;;;;;;6.61;69.69;99983.22;5029452;28;20041;-20
2022/03/07 10:28:57;;;;;;;17.00;10.07;;;;;;;6.77;68.92;99976.78;5029600;28;20096;-20
2022/03/07 10:31:23;;;;;;;17.58;8.82;;;;;;;6.55;73.08;99989.28;5029326;28;20025;-21
2022/03/07 10:34:00;;;;;;;17.17;9.38;;;;;;;6.72;70.06;99995.13;5029485;28;20504;-19
2022/03/07 10:36:30;;;;;;;17.65;9.27;;;;;;;6.69;72.06;99984.88;5029097;28;20047;-20
2022/03/07 10:38:55;;;;;;;15.73;8.40;;;;;;;6.38;71.75;99978.19;5028265;28;20040;-20
2022/03/07 10:41:32;;;;;;;15.95;7.78;;;;;;;6.38;71.82;99962.28;5029544;28;20493;-20
2022/03/07 10:43:57;;;;;;;15.70;8.65;;;;;;;7.05;68.43;99967.94;5029913;28;20034;-20
2022/03/07 10:46:26;;;;;;;12.95;7.88;;;;;;;7.06;68.40;99958.16;5029194;28;20048;-20
2022/03/07 10:48:51;;;;;;;19.35;10.68;;;;;;;7.23;69.74;99938.19;5028862;28;20029;-20
2022/03/07 10:51:17;;;;;;;16.67;9.30;;;;;;;7.00;67.79;99954.44;5029031;28;20037;-20
2022/03/07 10:53:43;;;;;;;18.77;9.85;;;;;;;7.48;69.41;99970.31;5029091;28;20026;-20
2022/03/07 10:56:11;;;;;;;13.05;6.95;;;;;;;7.07;67.75;99954.47;5029076;28;20039;-19
2022/03/07 10:58:36;;;;;;;9.73;5.60;;;;;;;7.26;66.69;99972.28;5011067;28;20065;-20
2022/03/07 11:01:02;;;;;;;10.50;5.82;;;;;;;7.44;67.22;99966.44;4994354;28;20033;-21
2022/03/07 11:03:29;;;;;;;11.52;6.90;;;;;;;7.40;66.11;99946.63;5028557;28;20033;-20
2022/03/07 11:05:55;;;;;;;13.43;7.15;;;;;;;7.30;67.38;99960.28;5029043;28;20029;-20
2022/03/07 11:08:21;;;;;;;16.13;9.20;;;;;;;6.87;69.04;99949.09;5029069;28;20041;-20
2022/03/07 11:10:57;;;;;;;11.77;6.60;;;;;;;7.23;67.79;99962.91;5028502;28;20052;-22
2022/03/07 11:13:26;;;;;;;13.30;7.22;;;;;;;7.33;67.50;99948.44;5028196;28;20065;-20